createdAt,value
2022-08-19T00:01:59.532Z,101167.00
2022-08-19T00:04:34.026Z,101164.59
2022-08-19T00:07:02.747Z,101154.09
2022-08-19T00:09:29.692Z,101155.66
2022-08-19T00:11:58.794Z,101143.50
2022-08-19T00:14:27.285Z,101137.47
2022-08-19T00:16:55.410Z,101129.81
2022-08-19T00:19:23.403Z,101136.97
2022-08-19T00:21:50.411Z,101127.84
2022-08-19T00:24:17.270Z,101141.38
2022-08-19T00:26:44.986Z,101143.03
2022-08-19T00:29:13.085Z,101133.66
2022-08-19T00:31:39.885Z,101132.56
2022-08-19T00:34:06.409Z,101130.09
2022-08-19T00:36:34.055Z,101128.69
2022-08-19T00:39:01.753Z,101114.84
2022-08-19T00:41:29.124Z,101124.81
2022-08-19T00:44:06.618Z,101116.81
2022-08-19T00:46:37.544Z,101122.63
2022-08-19T00:49:10.720Z,101116.81
2022-08-19T00:51:37.407Z,101124.59
2022-08-19T00:54:04.715Z,101126.00
2022-08-19T00:56:31.992Z,101123.22
2022-08-19T00:59:00.435Z,101121.00
2022-08-19T01:01:27.393Z,101117.97
2022-08-19T01:03:56.903Z,101114.38
2022-08-19T01:06:26.423Z,101119.88
2022-08-19T01:08:53.214Z,101122.06
2022-08-19T01:11:19.860Z,101124.28
2022-08-19T01:13:49.084Z,101124.59
2022-08-19T01:16:19.262Z,101114.94
2022-08-19T01:18:46.076Z,101114.38
2022-08-19T01:21:38.780Z,101109.94
2022-08-19T01:24:05.547Z,101105.53
2022-08-19T01:26:32.116Z,101098.94
2022-08-19T01:29:02.141Z,101098.06
2022-08-19T01:31:32.894Z,101101.69
2022-08-19T01:34:01.282Z,101113.28
2022-08-19T01:36:36.502Z,101105.00
2022-08-19T01:39:06.557Z,101108.63
2022-08-19T01:41:33.414Z,101099.84
2022-08-19T01:44:13.411Z,101101.78
2022-08-19T01:46:46.124Z,101087.84
2022-08-19T01:49:12.650Z,101085.13
2022-08-19T01:51:40.292Z,101083.97
2022-08-19T01:54:09.264Z,101081.28
2022-08-19T01:56:36.113Z,101077.44
2022-08-19T01:59:09.408Z,101078.00
2022-08-19T02:01:36.472Z,101076.91
2022-08-19T02:04:03.370Z,101074.47
2022-08-19T02:06:30.656Z,101082.75
2022-08-19T02:08:57.904Z,101083.56
2022-08-19T02:11:36.406Z,101086.34
2022-08-19T02:14:07.458Z,101073.31
2022-08-19T02:16:34.158Z,101075.06
2022-08-19T02:19:04.153Z,101072.84
2022-08-19T02:21:31.546Z,101068.09
2022-08-19T02:23:58.514Z,101058.72
2022-08-19T02:26:27.456Z,101061.13
2022-08-19T02:28:55.580Z,101065.63
2022-08-19T02:31:25.644Z,101060.91
2022-08-19T02:33:53.352Z,101060.41
2022-08-19T02:36:24.090Z,101053.47
2022-08-19T02:38:54.871Z,101050.47
2022-08-19T02:41:27.335Z,101060.69
2022-08-19T02:44:29.823Z,101059.31
2022-08-19T02:46:42.310Z,101065.41
2022-08-19T02:49:09.322Z,101057.63
2022-08-19T02:51:41.740Z,101045.47
2022-08-19T02:54:11.146Z,101041.66
2022-08-19T02:56:39.731Z,101039.56
2022-08-19T02:59:09.312Z,101042.13
2022-08-19T03:01:38.662Z,101044.66
2022-08-19T03:04:07.729Z,101041.34
2022-08-19T03:06:38.006Z,101044.41
2022-08-19T03:09:05.049Z,101043.81
2022-08-19T03:11:33.302Z,101048.81
2022-08-19T03:14:01.887Z,101060.94
2022-08-19T03:16:33.434Z,101069.78
2022-08-19T03:19:02.268Z,101063.16
2022-08-19T03:21:32.696Z,101060.41
2022-08-19T03:24:05.680Z,101057.63
2022-08-19T03:26:32.368Z,101059.53
2022-08-19T03:29:04.959Z,101063.06
2022-08-19T03:31:41.548Z,101065.47
2022-08-19T03:34:13.470Z,101063.41
2022-08-19T03:36:40.284Z,101062.09
2022-08-19T03:39:06.819Z,101073.69
2022-08-19T03:41:45.196Z,101073.94
2022-08-19T03:44:20.609Z,101077.59
2022-08-19T03:46:52.978Z,101080.31
2022-08-19T03:49:20.993Z,101086.13
2022-08-19T03:51:49.353Z,101091.88
2022-08-19T03:54:19.790Z,101095.22
2022-08-19T03:56:49.941Z,101095.53
2022-08-19T03:59:29.503Z,101107.97
2022-08-19T04:01:58.144Z,101102.19
2022-08-19T04:04:25.640Z,101107.69
2022-08-19T04:06:56.541Z,101107.97
2022-08-19T04:09:23.106Z,101111.50
2022-08-19T04:11:56.232Z,101099.03
2022-08-19T04:14:31.245Z,101109.84
2022-08-19T04:16:59.998Z,101094.19
2022-08-19T04:19:27.830Z,101099.19
2022-08-19T04:21:56.190Z,101087.56
2022-08-19T04:24:23.590Z,101095.22
2022-08-19T04:26:51.002Z,101097.47
2022-08-19T04:29:25.978Z,101103.56
2022-08-19T04:31:55.109Z,101106.34
2022-08-19T04:34:23.629Z,101100.00
2022-08-19T04:36:52.139Z,101102.78
2022-08-19T04:39:22.598Z,101112.97
2022-08-19T04:42:07.785Z,101116.78
2022-08-19T04:44:46.158Z,101117.97
2022-08-19T04:47:13.212Z,101117.41
2022-08-19T04:49:39.870Z,101128.16
2022-08-19T04:52:06.453Z,101125.16
2022-08-19T04:54:38.211Z,101128.19
2022-08-19T04:57:11.293Z,101126.50
2022-08-19T04:59:39.758Z,101130.13
2022-08-19T05:02:08.688Z,101132.03
2022-08-19T05:04:36.272Z,101133.41
2022-08-19T05:07:03.173Z,101138.94
2022-08-19T05:09:53.288Z,101138.69
2022-08-19T05:12:18.778Z,101136.72
2022-08-19T05:14:47.044Z,101133.97
2022-08-19T05:17:33.497Z,101138.38
2022-08-19T05:20:19.710Z,101137.00
2022-08-19T05:22:48.393Z,101141.66
2022-08-19T05:25:20.112Z,101138.34
2022-08-19T05:27:47.384Z,101137.25
2022-08-19T05:30:14.436Z,101149.94
2022-08-19T05:32:41.743Z,101148.03
2022-08-19T05:35:09.025Z,101150.50
2022-08-19T05:37:35.649Z,101141.94
2022-08-19T05:40:02.612Z,101143.88
2022-08-19T05:42:29.304Z,101141.41
2022-08-19T05:44:57.691Z,101154.06
2022-08-19T05:47:24.290Z,101144.38
2022-08-19T05:49:52.305Z,101144.94
2022-08-19T05:52:26.166Z,101133.31
2022-08-19T05:54:55.972Z,101147.13
2022-08-19T05:57:23.985Z,101147.69
2022-08-19T05:59:53.232Z,101142.72
2022-08-19T06:02:26.980Z,101146.00
2022-08-19T06:04:53.615Z,101145.47
2022-08-19T06:07:20.618Z,101141.34
2022-08-19T06:09:58.973Z,101149.84
2022-08-19T06:12:32.478Z,101134.97
2022-08-19T06:15:01.529Z,101133.28
2022-08-19T06:17:31.732Z,101139.38
2022-08-19T06:19:59.571Z,101140.09
2022-08-19T06:22:26.861Z,101139.34
2022-08-19T06:24:54.915Z,101138.75
2022-08-19T06:27:22.493Z,101134.94
2022-08-19T06:29:49.084Z,101134.94
2022-08-19T06:32:17.647Z,101139.94
2022-08-19T06:34:44.326Z,101135.81
2022-08-19T06:37:12.728Z,101140.47
2022-08-19T06:39:41.436Z,101147.69
2022-08-19T06:42:11.125Z,101147.34
2022-08-19T06:44:43.131Z,101147.66
2022-08-19T06:47:23.835Z,101155.97
2022-08-19T06:50:01.247Z,101159.28
2022-08-19T06:52:34.899Z,101159.25
2022-08-19T06:55:06.325Z,101152.03
2022-08-19T06:57:33.916Z,101154.75
2022-08-19T07:00:01.145Z,101154.41
2022-08-19T07:02:27.745Z,101153.03
2022-08-19T07:04:54.399Z,101159.72
2022-08-19T07:07:22.043Z,101159.75
2022-08-19T07:09:59.995Z,101155.09
2022-08-19T07:12:35.662Z,101151.16
2022-08-19T07:15:06.417Z,101153.13
2022-08-19T07:17:34.589Z,101153.69
2022-08-19T07:20:06.739Z,101160.50
2022-08-19T07:22:35.039Z,101159.75
2022-08-19T07:25:03.960Z,101167.41
2022-08-19T07:27:30.811Z,101165.78
2022-08-19T07:30:00.565Z,101161.38
2022-08-19T07:32:27.869Z,101161.28
2022-08-19T07:34:55.323Z,101167.38
2022-08-19T07:37:24.217Z,101170.19
2022-08-19T07:39:50.785Z,101170.72
2022-08-19T07:42:19.071Z,101179.03
2022-08-19T07:44:49.978Z,101183.44
2022-08-19T07:47:50.463Z,101191.16
2022-08-19T07:50:08.817Z,101182.03
2022-08-19T07:52:36.943Z,101190.63
2022-08-19T07:55:05.140Z,101192.53
2022-08-19T07:57:31.816Z,101188.97
2022-08-19T07:59:58.381Z,101194.47
2022-08-19T08:02:24.947Z,101197.28
2022-08-19T08:05:10.120Z,101199.47
2022-08-19T08:07:55.423Z,101201.91
2022-08-19T08:10:24.489Z,101203.84
2022-08-19T08:13:08.835Z,101217.13
2022-08-19T08:15:42.637Z,101220.66
2022-08-19T08:18:11.076Z,101224.84
2022-08-19T08:20:37.685Z,101228.97
2022-08-19T08:23:23.044Z,101227.34
2022-08-19T08:25:50.503Z,101218.78
2022-08-19T08:28:18.544Z,101225.47
2022-08-19T08:30:49.039Z,101229.88
2022-08-19T08:33:33.967Z,101229.03
2022-08-19T08:36:11.952Z,101230.13
2022-08-19T08:38:40.544Z,101232.25
2022-08-19T08:41:23.483Z,101232.63
2022-08-19T08:43:54.102Z,101237.09
2022-08-19T08:46:31.496Z,101240.44
2022-08-19T08:49:01.907Z,101239.88
2022-08-19T08:51:37.987Z,101232.66
2022-08-19T08:54:09.781Z,101239.56
2022-08-19T08:56:39.770Z,101229.91
2022-08-19T08:59:13.838Z,101230.44
2022-08-19T09:01:40.627Z,101232.09
2022-08-19T09:04:08.578Z,101234.25
2022-08-19T09:06:53.055Z,101222.69
2022-08-19T09:09:35.874Z,101233.66
2022-08-19T09:12:26.729Z,101229.78
2022-08-19T09:14:56.829Z,101231.50
2022-08-19T09:17:36.341Z,101225.97
2022-08-19T09:20:11.391Z,101233.66
2022-08-19T09:22:40.326Z,101234.94
2022-08-19T09:25:10.314Z,101235.53
2022-08-19T09:27:42.245Z,101239.09
2022-08-19T09:30:15.130Z,101237.59
2022-08-19T09:32:44.142Z,101236.19
2022-08-19T09:35:17.683Z,101230.91
2022-08-19T09:37:44.547Z,101230.78
2022-08-19T09:40:12.835Z,101222.06
2022-08-19T09:42:49.915Z,101236.81
2022-08-19T09:45:21.402Z,101224.19
2022-08-19T09:47:48.792Z,101231.09
2022-08-19T09:50:16.303Z,101232.28
2022-08-19T09:52:53.926Z,101233.72
2022-08-19T09:55:31.268Z,101229.03
2022-08-19T09:57:59.933Z,101236.66
2022-08-19T10:00:27.741Z,101236.06
2022-08-19T10:02:54.307Z,101232.19
2022-08-19T10:05:42.387Z,101222.25
2022-08-19T10:08:13.348Z,101232.09
2022-08-19T10:10:44.156Z,101234.53
2022-08-19T10:13:15.386Z,101236.63
2022-08-19T10:15:47.415Z,101232.75
2022-08-19T10:18:15.702Z,101240.69
2022-08-19T10:20:43.376Z,101242.22
2022-08-19T10:23:10.394Z,101248.47
2022-08-19T10:25:37.001Z,101247.16
2022-08-19T10:28:10.622Z,101246.00
2022-08-19T10:30:37.806Z,101247.94
2022-08-19T10:33:08.484Z,101241.56
2022-08-19T10:35:42.662Z,101238.94
2022-08-19T10:38:31.444Z,101238.91
2022-08-19T10:41:07.612Z,101236.69
2022-08-19T10:43:37.100Z,101232.63
2022-08-19T10:46:04.889Z,101229.78
2022-08-19T10:48:36.787Z,101227.53
2022-08-19T10:51:23.446Z,101230.03
2022-08-19T10:53:51.673Z,101230.03
2022-08-19T10:56:37.389Z,101224.81
2022-08-19T10:59:04.433Z,101225.94
2022-08-19T11:01:34.260Z,101222.97
2022-08-19T11:04:02.558Z,101223.03
2022-08-19T11:06:29.232Z,101231.03
2022-08-19T11:08:55.971Z,101229.31
2022-08-19T11:11:23.332Z,101233.59
2022-08-19T11:13:50.968Z,101228.78
2022-08-19T11:16:21.261Z,101228.78
2022-08-19T11:18:53.420Z,101228.34
2022-08-19T11:21:26.624Z,101235.91
2022-08-19T11:23:57.195Z,101232.66
2022-08-19T11:26:24.259Z,101233.13
2022-08-19T11:28:54.742Z,101236.06
2022-08-19T11:31:24.099Z,101237.84
2022-08-19T11:33:58.322Z,101236.25
2022-08-19T11:36:24.941Z,101233.47
2022-08-19T11:38:51.859Z,101224.84
2022-08-19T11:41:21.365Z,101226.88
2022-08-19T11:43:48.420Z,101228.16
2022-08-19T11:46:16.752Z,101239.25
2022-08-19T11:48:44.314Z,101233.88
2022-08-19T11:51:15.557Z,101234.59
2022-08-19T11:53:42.459Z,101235.13
2022-08-19T11:56:10.788Z,101225.47
2022-08-19T11:58:37.674Z,101232.59
2022-08-19T12:01:12.381Z,101227.13
2022-08-19T12:03:39.797Z,101219.91
2022-08-19T12:06:11.949Z,101206.97
2022-08-19T12:08:44.226Z,101221.22
2022-08-19T12:11:12.691Z,101222.31
2022-08-19T12:13:39.874Z,101228.50
2022-08-19T12:16:16.665Z,101218.75
2022-08-19T12:18:47.514Z,101225.03
2022-08-19T12:21:15.869Z,101215.38
2022-08-19T12:23:43.456Z,101215.06
2022-08-19T12:26:11.398Z,101220.94
2022-08-19T12:28:38.665Z,101225.16
2022-08-19T12:31:05.580Z,101217.13
2022-08-19T12:33:33.054Z,101220.63
2022-08-19T12:36:08.233Z,101218.84
2022-08-19T12:38:38.365Z,101227.81
2022-08-19T12:41:08.018Z,101222.19
2022-08-19T12:43:38.772Z,101216.19
2022-08-19T12:46:07.200Z,101214.31
2022-08-19T12:48:38.439Z,101213.59
2022-08-19T12:51:11.805Z,101206.78
2022-08-19T12:53:39.122Z,101211.59
2022-08-19T12:56:07.630Z,101205.41
2022-08-19T12:58:38.801Z,101212.63
2022-08-19T13:01:15.615Z,101198.63
2022-08-19T13:03:47.231Z,101205.75
2022-08-19T13:06:14.787Z,101208.97
2022-08-19T13:08:46.521Z,101212.44
2022-08-19T13:11:18.458Z,101213.28
2022-08-19T13:13:47.906Z,101209.72
2022-08-19T13:16:15.751Z,101206.00
2022-08-19T13:18:44.953Z,101204.44
2022-08-19T13:21:14.412Z,101198.06
2022-08-19T13:23:41.915Z,101192.06
2022-08-19T13:26:09.959Z,101191.13
2022-08-19T13:28:55.130Z,101198.75
2022-08-19T13:31:42.259Z,101204.03
2022-08-19T13:34:09.136Z,101200.53
2022-08-19T13:36:37.189Z,101196.63
2022-08-19T13:39:04.689Z,101192.00
2022-08-19T13:41:31.984Z,101198.53
2022-08-19T13:43:58.621Z,101212.44
2022-08-19T13:46:25.170Z,101201.53
2022-08-19T13:48:51.716Z,101199.53
2022-08-19T13:51:18.891Z,101201.28
2022-08-19T13:53:48.012Z,101190.47
2022-08-19T13:56:17.550Z,101194.28
2022-08-19T13:58:44.455Z,101195.59
2022-08-19T14:01:11.679Z,101180.78
2022-08-19T14:03:39.520Z,101179.56
2022-08-19T14:06:06.280Z,101180.06
2022-08-19T14:08:33.671Z,101182.56
2022-08-19T14:11:00.602Z,101182.00
2022-08-19T14:13:34.673Z,101176.84
2022-08-19T14:16:01.236Z,101180.03
2022-08-19T14:18:28.695Z,101186.53
2022-08-19T14:20:57.830Z,101182.19
2022-08-19T14:23:25.702Z,101177.13
2022-08-19T14:25:52.373Z,101178.25
2022-08-19T14:28:19.096Z,101171.81
2022-08-19T14:30:45.748Z,101176.53
2022-08-19T14:33:12.606Z,101170.56
2022-08-19T14:35:39.209Z,101171.56
2022-08-19T14:38:06.922Z,101181.91
2022-08-19T14:40:33.629Z,101177.72
2022-08-19T14:43:04.890Z,101178.19
2022-08-19T14:45:37.452Z,101177.50
2022-08-19T14:48:05.746Z,101177.56
2022-08-19T14:50:32.981Z,101181.38
2022-08-19T14:53:11.970Z,101177.06
2022-08-19T14:55:43.967Z,101179.31
2022-08-19T14:58:10.640Z,101182.03
2022-08-19T15:00:57.293Z,101179.13
2022-08-19T15:03:23.822Z,101171.41
2022-08-19T15:05:50.382Z,101179.75
2022-08-19T15:08:16.982Z,101179.94
2022-08-19T15:10:43.602Z,101186.84
2022-08-19T15:13:10.415Z,101190.06
2022-08-19T15:15:36.965Z,101194.94
2022-08-19T15:18:04.877Z,101186.59
2022-08-19T15:20:32.000Z,101192.38
2022-08-19T15:23:01.835Z,101193.78
2022-08-19T15:25:28.739Z,101191.91
2022-08-19T15:27:55.540Z,101195.00
2022-08-19T15:30:26.430Z,101200.53
2022-08-19T15:32:55.811Z,101209.56
2022-08-19T15:35:24.471Z,101208.31
2022-08-19T15:37:52.247Z,101212.88
2022-08-19T15:40:20.115Z,101212.44
2022-08-19T15:42:47.408Z,101215.28
2022-08-19T15:45:14.995Z,101214.50
2022-08-19T15:47:41.761Z,101211.34
2022-08-19T15:50:23.972Z,101225.28
2022-08-19T15:52:53.666Z,101218.75
2022-08-19T15:55:33.335Z,101216.97
2022-08-19T15:58:40.271Z,101218.16
2022-08-19T16:01:27.633Z,101220.06
2022-08-19T16:04:15.785Z,101220.13
2022-08-19T16:06:49.174Z,101211.69
2022-08-19T16:09:17.543Z,101208.31
2022-08-19T16:11:46.508Z,101206.00
2022-08-19T16:14:18.629Z,101204.94
2022-08-19T16:16:47.289Z,101201.22
2022-08-19T16:19:17.032Z,101209.56
2022-08-19T16:21:46.383Z,101200.34
2022-08-19T16:24:14.608Z,101199.09
2022-08-19T16:26:42.527Z,101199.28
2022-08-19T16:29:12.251Z,101203.53
2022-08-19T16:31:43.346Z,101212.66
2022-08-19T16:34:11.208Z,101205.28
2022-08-19T16:36:40.789Z,101196.09
2022-08-19T16:39:09.044Z,101204.53
2022-08-19T16:41:37.608Z,101191.28
2022-08-19T16:44:06.104Z,101196.84
2022-08-19T16:46:32.683Z,101199.50
2022-08-19T16:48:59.592Z,101198.81
2022-08-19T16:51:26.237Z,101204.38
2022-08-19T16:53:53.437Z,101201.78
2022-08-19T16:56:21.483Z,101201.06
2022-08-19T16:58:50.514Z,101196.84
2022-08-19T17:01:18.288Z,101189.66
2022-08-19T17:03:45.022Z,101194.38
2022-08-19T17:06:26.529Z,101190.97
2022-08-19T17:08:56.704Z,101182.13
2022-08-19T17:11:24.514Z,101188.72
2022-08-19T17:13:51.410Z,101198.88
2022-08-19T17:16:25.047Z,101199.41
2022-08-19T17:18:56.054Z,101190.47
2022-08-19T17:21:25.625Z,101193.63
2022-08-19T17:23:52.149Z,101186.28
2022-08-19T17:26:19.023Z,101189.97
2022-08-19T17:28:50.968Z,101194.88
2022-08-19T17:31:20.135Z,101186.41
2022-08-19T17:33:48.440Z,101184.34
2022-08-19T17:36:26.717Z,101192.16
2022-08-19T17:38:55.595Z,101202.94
2022-08-19T17:41:24.543Z,101191.97
2022-08-19T17:43:51.896Z,101190.03
2022-08-19T17:46:20.270Z,101197.63
2022-08-19T17:48:57.014Z,101194.13
2022-08-19T17:51:35.975Z,101194.88
2022-08-19T17:54:05.561Z,101198.97
2022-08-19T17:56:32.758Z,101200.69
2022-08-19T17:59:01.631Z,101193.25
2022-08-19T18:01:32.021Z,101201.19
2022-08-19T18:04:17.373Z,101189.84
2022-08-19T18:06:46.053Z,101190.47
2022-08-19T18:09:38.632Z,101199.44
2022-08-19T18:12:09.995Z,101186.84
2022-08-19T18:14:37.966Z,101188.00
2022-08-19T18:17:14.063Z,101183.16
2022-08-19T18:19:44.087Z,101184.47
2022-08-19T18:22:27.605Z,101176.63
2022-08-19T18:24:56.133Z,101180.16
2022-08-19T18:27:23.226Z,101196.06
2022-08-19T18:29:49.932Z,101181.41
2022-08-19T18:32:23.575Z,101179.75
2022-08-19T18:34:51.278Z,101178.16
2022-08-19T18:37:18.319Z,101177.66
2022-08-19T18:40:04.219Z,101179.69
2022-08-19T18:42:50.124Z,101185.88
2022-08-19T18:45:35.569Z,101180.94
2022-08-19T18:48:23.960Z,101184.13
2022-08-19T18:50:56.102Z,101177.28
2022-08-19T18:53:22.665Z,101176.56
2022-08-19T18:55:51.948Z,101179.94
2022-08-19T18:58:20.134Z,101186.94
2022-08-19T19:00:48.721Z,101182.56
2022-08-19T19:03:15.784Z,101180.41
2022-08-19T19:05:44.469Z,101178.00
2022-08-19T19:08:16.717Z,101177.47
2022-08-19T19:10:44.010Z,101184.47
2022-08-19T19:13:16.866Z,101188.09
2022-08-19T19:15:44.344Z,101186.97
2022-08-19T19:18:13.896Z,101183.13
2022-08-19T19:20:41.693Z,101191.47
2022-08-19T19:23:09.175Z,101177.69
2022-08-19T19:25:50.423Z,101185.72
2022-08-19T19:28:24.381Z,101186.03
2022-08-19T19:30:53.560Z,101180.53
2022-08-19T19:33:20.880Z,101180.28
2022-08-19T19:35:51.304Z,101174.22
2022-08-19T19:38:18.968Z,101184.19
2022-08-19T19:40:47.905Z,101181.72
2022-08-19T19:43:17.617Z,101190.88
2022-08-19T19:45:46.287Z,101195.88
2022-08-19T19:48:14.921Z,101185.41
2022-08-19T19:50:42.592Z,101187.63
2022-08-19T19:53:09.445Z,101195.66
2022-08-19T19:55:36.503Z,101190.13
2022-08-19T19:58:04.656Z,101194.00
2022-08-19T20:00:31.267Z,101192.38
2022-08-19T20:02:57.842Z,101203.44
2022-08-19T20:05:24.676Z,101205.94
2022-08-19T20:08:12.506Z,101205.66
2022-08-19T20:10:40.899Z,101213.66
2022-08-19T20:13:08.735Z,101220.53
2022-08-19T20:15:40.305Z,101216.69
2022-08-19T20:18:10.299Z,101218.91
2022-08-19T20:20:37.007Z,101216.16
2022-08-19T20:23:03.551Z,101215.06
2022-08-19T20:25:32.187Z,101214.25
2022-08-19T20:28:01.381Z,101221.69
2022-08-19T20:30:32.083Z,101223.06
2022-08-19T20:32:59.856Z,101240.50
2022-08-19T20:35:26.858Z,101240.78
2022-08-19T20:37:58.056Z,101245.44
2022-08-19T20:40:25.698Z,101245.16
2022-08-19T20:42:52.305Z,101250.44
2022-08-19T20:45:33.222Z,101247.13
2022-08-19T20:48:02.682Z,101252.63
2022-08-19T20:50:30.626Z,101255.41
2022-08-19T20:52:58.381Z,101252.63
2022-08-19T20:55:26.580Z,101259.81
2022-08-19T20:57:53.646Z,101256.50
2022-08-19T21:00:20.520Z,101242.41
2022-08-19T21:02:47.455Z,101244.91
2022-08-19T21:05:15.038Z,101241.59
2022-08-19T21:07:41.684Z,101235.50
2022-08-19T21:10:08.928Z,101230.28
2022-08-19T21:12:35.669Z,101231.94
2022-08-19T21:15:02.438Z,101233.03
2022-08-19T21:17:29.010Z,101237.16
2022-08-19T21:19:55.579Z,101238.25
2022-08-19T21:22:22.198Z,101233.31
2022-08-19T21:24:48.921Z,101231.66
2022-08-19T21:27:15.428Z,101229.44
2022-08-19T21:29:42.290Z,101233.31
2022-08-19T21:32:14.053Z,101226.69
2022-08-19T21:34:43.950Z,101231.34
2022-08-19T21:37:25.397Z,101228.88
2022-08-19T21:39:53.648Z,101238.81
2022-08-19T21:42:20.873Z,101228.59
2022-08-19T21:44:48.134Z,101244.03
2022-08-19T21:47:14.700Z,101242.13
2022-08-19T21:49:41.898Z,101241.00
2022-08-19T21:52:09.357Z,101242.13
2022-08-19T21:54:37.618Z,101245.97
2022-08-19T21:57:05.121Z,101241.56
2022-08-19T21:59:36.898Z,101245.69
2022-08-19T22:02:19.095Z,101246.22
2022-08-19T22:04:46.677Z,101246.22
2022-08-19T22:07:14.438Z,101256.09
2022-08-19T22:09:43.694Z,101247.59
2022-08-19T22:12:20.992Z,101252.53
2022-08-19T22:14:47.531Z,101257.78
2022-08-19T22:17:14.692Z,101248.97
2022-08-19T22:19:41.412Z,101246.47
2022-08-19T22:22:08.062Z,101245.13
2022-08-19T22:24:35.296Z,101246.50
2022-08-19T22:27:04.199Z,101247.09
2022-08-19T22:29:34.027Z,101241.56
2022-08-19T22:32:17.799Z,101247.91
2022-08-19T22:34:48.145Z,101241.03
2022-08-19T22:37:14.694Z,101240.50
2022-08-19T22:39:41.401Z,101234.41
2022-08-19T22:42:08.057Z,101242.16
2022-08-19T22:44:34.809Z,101251.25
2022-08-19T22:47:02.260Z,101252.63
2022-08-19T22:49:28.818Z,101260.63
2022-08-19T22:52:21.498Z,101257.34
2022-08-19T22:54:51.979Z,101253.44
2022-08-19T22:57:20.383Z,101252.06
2022-08-19T22:59:48.760Z,101250.69
2022-08-19T23:02:24.628Z,101256.78
2022-08-19T23:04:52.010Z,101253.19
2022-08-19T23:07:23.630Z,101268.09
2022-08-19T23:09:50.684Z,101264.47
2022-08-19T23:12:26.530Z,101270.84
2022-08-19T23:14:53.089Z,101259.81
2022-08-19T23:17:20.558Z,101258.97
2022-08-19T23:19:47.193Z,101254.81
2022-08-19T23:22:17.211Z,101259.81
2022-08-19T23:24:43.767Z,101257.03
2022-08-19T23:27:29.516Z,101243.22
2022-08-19T23:30:14.582Z,101248.75
2022-08-19T23:32:41.110Z,101253.72
2022-08-19T23:35:08.229Z,101257.03
2022-08-19T23:37:36.048Z,101265.59
2022-08-19T23:40:05.047Z,101254.56
2022-08-19T23:42:31.654Z,101268.09
2022-08-19T23:45:07.219Z,101252.59
2022-08-19T23:47:35.003Z,101253.69
2022-08-19T23:50:06.074Z,101250.94
2022-08-19T23:52:35.158Z,101247.06
2022-08-19T23:55:04.278Z,101233.56
2022-08-19T23:57:30.793Z,101236.31
2022-08-19T23:59:57.376Z,101241.00
